sensor_id;sensor_type;location;lat;lon;timestamp;temperature;humidity
11446;DHT22;5779;64.178;15.432;2023-05-10T00:01:54;8.30;99.90
11446;DHT22;5779;64.178;15.432;2023-05-10T00:04:41;8.20;99.90
11446;DHT22;5779;64.178;15.432;2023-05-10T00:07:28;8.20;99.90
11446;DHT22;5779;64.178;15.432;2023-05-10T00:10:17;7.90;99.90
11446;DHT22;5779;64.178;15.432;2023-05-10T00:13:04;7.90;99.90
11446;DHT22;5779;64.178;15.432;2023-05-10T00:15:51;7.90;99.90
11446;DHT22;5779;64.178;15.432;2023-05-10T00:18:38;7.80;99.90
11446;DHT22;5779;64.178;15.432;2023-05-10T00:21:24;7.80;99.90
11446;DHT22;5779;64.178;15.432;2023-05-10T00:24:13;7.90;99.90
11446;DHT22;5779;64.178;15.432;2023-05-10T00:27:01;7.80;99.90
11446;DHT22;5779;64.178;15.432;2023-05-10T00:29:49;7.80;99.90
11446;DHT22;5779;64.178;15.432;2023-05-10T00:32:36;7.70;99.90
11446;DHT22;5779;64.178;15.432;2023-05-10T00:35:24;7.70;99.90
11446;DHT22;5779;64.178;15.432;2023-05-10T00:38:11;7.80;99.90
11446;DHT22;5779;64.178;15.432;2023-05-10T00:40:58;7.80;99.90
11446;DHT22;5779;64.178;15.432;2023-05-10T00:43:46;7.80;99.90
11446;DHT22;5779;64.178;15.432;2023-05-10T00:46:33;7.80;99.90
11446;DHT22;5779;64.178;15.432;2023-05-10T00:49:20;7.80;99.90
11446;DHT22;5779;64.178;15.432;2023-05-10T00:52:07;7.60;99.90
11446;DHT22;5779;64.178;15.432;2023-05-10T00:54:54;7.50;99.90
11446;DHT22;5779;64.178;15.432;2023-05-10T00:57:41;7.20;99.90
11446;DHT22;5779;64.178;15.432;2023-05-10T01:00:30;7.40;99.90
11446;DHT22;5779;64.178;15.432;2023-05-10T01:03:19;7.40;99.90
11446;DHT22;5779;64.178;15.432;2023-05-10T01:06:06;7.30;99.90
11446;DHT22;5779;64.178;15.432;2023-05-10T01:08:55;7.20;99.90
11446;DHT22;5779;64.178;15.432;2023-05-10T01:11:42;7.00;99.90
11446;DHT22;5779;64.178;15.432;2023-05-10T01:14:29;6.80;99.90
11446;DHT22;5779;64.178;15.432;2023-05-10T01:17:17;7.00;99.90
11446;DHT22;5779;64.178;15.432;2023-05-10T01:20:06;7.00;99.90
11446;DHT22;5779;64.178;15.432;2023-05-10T01:23:30;7.00;99.90
11446;DHT22;5779;64.178;15.432;2023-05-10T01:30:20;6.80;99.90
11446;DHT22;5779;64.178;15.432;2023-05-10T01:33:16;6.40;99.90
11446;DHT22;5779;64.178;15.432;2023-05-10T01:36:09;5.90;99.90
11446;DHT22;5779;64.178;15.432;2023-05-10T01:39:04;5.90;99.90
11446;DHT22;5779;64.178;15.432;2023-05-10T01:41:59;5.90;99.90
11446;DHT22;5779;64.178;15.432;2023-05-10T01:44:54;5.90;99.90
11446;DHT22;5779;64.178;15.432;2023-05-10T01:47:44;6.00;99.90
11446;DHT22;5779;64.178;15.432;2023-05-10T01:50:36;5.90;99.90
11446;DHT22;5779;64.178;15.432;2023-05-10T01:53:24;6.00;99.90
11446;DHT22;5779;64.178;15.432;2023-05-10T01:56:11;6.10;99.90
11446;DHT22;5779;64.178;15.432;2023-05-10T01:59:00;6.20;99.90
11446;DHT22;5779;64.178;15.432;2023-05-10T02:01:53;6.20;99.90
11446;DHT22;5779;64.178;15.432;2023-05-10T02:04:41;6.20;99.90
11446;DHT22;5779;64.178;15.432;2023-05-10T02:07:31;6.10;99.90
11446;DHT22;5779;64.178;15.432;2023-05-10T02:10:19;6.20;99.90
11446;DHT22;5779;64.178;15.432;2023-05-10T02:13:07;6.00;99.90
11446;DHT22;5779;64.178;15.432;2023-05-10T02:15:54;5.80;99.90
11446;DHT22;5779;64.178;15.432;2023-05-10T02:18:42;5.60;99.90
11446;DHT22;5779;64.178;15.432;2023-05-10T02:21:29;5.00;99.90
11446;DHT22;5779;64.178;15.432;2023-05-10T02:24:19;4.90;99.90
11446;DHT22;5779;64.178;15.432;2023-05-10T02:27:07;4.90;99.90
11446;DHT22;5779;64.178;15.432;2023-05-10T02:29:55;5.10;99.90
11446;DHT22;5779;64.178;15.432;2023-05-10T02:32:43;5.20;99.90
11446;DHT22;5779;64.178;15.432;2023-05-10T02:35:31;5.20;99.90
11446;DHT22;5779;64.178;15.432;2023-05-10T02:38:20;5.20;99.90
11446;DHT22;5779;64.178;15.432;2023-05-10T02:41:10;5.30;99.90
11446;DHT22;5779;64.178;15.432;2023-05-10T02:43:59;5.30;99.90
11446;DHT22;5779;64.178;15.432;2023-05-10T02:46:47;5.20;99.90
11446;DHT22;5779;64.178;15.432;2023-05-10T02:49:34;5.30;99.90
11446;DHT22;5779;64.178;15.432;2023-05-10T02:52:24;5.40;99.90
11446;DHT22;5779;64.178;15.432;2023-05-10T02:55:14;5.40;99.90
11446;DHT22;5779;64.178;15.432;2023-05-10T02:58:03;5.50;99.90
11446;DHT22;5779;64.178;15.432;2023-05-10T03:00:50;5.50;99.90
11446;DHT22;5779;64.178;15.432;2023-05-10T03:03:37;5.50;99.90
11446;DHT22;5779;64.178;15.432;2023-05-10T03:06:24;5.50;99.90
11446;DHT22;5779;64.178;15.432;2023-05-10T03:09:11;5.60;99.90
11446;DHT22;5779;64.178;15.432;2023-05-10T03:12:06;5.70;99.90
11446;DHT22;5779;64.178;15.432;2023-05-10T03:15:00;5.80;99.90
11446;DHT22;5779;64.178;15.432;2023-05-10T03:17:55;5.80;99.90
11446;DHT22;5779;64.178;15.432;2023-05-10T03:20:46;5.90;99.90
11446;DHT22;5779;64.178;15.432;2023-05-10T03:23:35;5.90;99.90
11446;DHT22;5779;64.178;15.432;2023-05-10T03:26:25;6.00;99.90
11446;DHT22;5779;64.178;15.432;2023-05-10T03:29:14;6.00;99.90
11446;DHT22;5779;64.178;15.432;2023-05-10T03:32:03;6.10;99.90
11446;DHT22;5779;64.178;15.432;2023-05-10T03:34:50;6.30;99.90
11446;DHT22;5779;64.178;15.432;2023-05-10T03:37:37;6.50;99.90
11446;DHT22;5779;64.178;15.432;2023-05-10T03:40:24;6.60;99.90
11446;DHT22;5779;64.178;15.432;2023-05-10T03:43:13;6.70;99.90
11446;DHT22;5779;64.178;15.432;2023-05-10T03:46:02;6.90;99.90
11446;DHT22;5779;64.178;15.432;2023-05-10T03:48:50;7.20;99.90
11446;DHT22;5779;64.178;15.432;2023-05-10T03:51:37;7.40;99.90
11446;DHT22;5779;64.178;15.432;2023-05-10T03:54:24;7.60;99.90
11446;DHT22;5779;64.178;15.432;2023-05-10T03:57:11;7.70;99.90
11446;DHT22;5779;64.178;15.432;2023-05-10T03:59:58;7.80;99.90
11446;DHT22;5779;64.178;15.432;2023-05-10T04:02:45;8.00;99.90
11446;DHT22;5779;64.178;15.432;2023-05-10T04:05:34;8.00;99.90
11446;DHT22;5779;64.178;15.432;2023-05-10T04:08:21;8.30;99.90
11446;DHT22;5779;64.178;15.432;2023-05-10T04:11:08;8.40;99.90
11446;DHT22;5779;64.178;15.432;2023-05-10T04:13:55;8.60;99.90
11446;DHT22;5779;64.178;15.432;2023-05-10T04:16:42;8.80;99.90
11446;DHT22;5779;64.178;15.432;2023-05-10T04:19:29;9.00;99.90
11446;DHT22;5779;64.178;15.432;2023-05-10T04:22:18;9.10;99.90
11446;DHT22;5779;64.178;15.432;2023-05-10T04:25:06;9.20;99.90
11446;DHT22;5779;64.178;15.432;2023-05-10T04:27:52;9.20;99.90
11446;DHT22;5779;64.178;15.432;2023-05-10T04:30:39;9.20;99.90
11446;DHT22;5779;64.178;15.432;2023-05-10T04:33:26;9.20;99.90
11446;DHT22;5779;64.178;15.432;2023-05-10T04:36:13;9.20;99.90
11446;DHT22;5779;64.178;15.432;2023-05-10T04:39:02;9.20;99.90
11446;DHT22;5779;64.178;15.432;2023-05-10T04:41:49;9.20;99.90
11446;DHT22;5779;64.178;15.432;2023-05-10T04:44:36;9.30;99.90
11446;DHT22;5779;64.178;15.432;2023-05-10T04:47:22;9.30;99.90
11446;DHT22;5779;64.178;15.432;2023-05-10T04:50:10;9.50;99.90
11446;DHT22;5779;64.178;15.432;2023-05-10T04:52:56;9.50;99.90
11446;DHT22;5779;64.178;15.432;2023-05-10T04:55:45;9.50;99.90
11446;DHT22;5779;64.178;15.432;2023-05-10T04:58:31;9.70;99.90
11446;DHT22;5779;64.178;15.432;2023-05-10T05:01:18;9.90;99.90
11446;DHT22;5779;64.178;15.432;2023-05-10T05:04:05;9.80;99.90
11446;DHT22;5779;64.178;15.432;2023-05-10T05:06:53;9.90;99.90
11446;DHT22;5779;64.178;15.432;2023-05-10T05:09:40;10.00;99.90
11446;DHT22;5779;64.178;15.432;2023-05-10T05:12:28;10.10;99.90
11446;DHT22;5779;64.178;15.432;2023-05-10T05:15:15;10.10;99.90
11446;DHT22;5779;64.178;15.432;2023-05-10T05:18:02;10.10;99.90
11446;DHT22;5779;64.178;15.432;2023-05-10T05:20:49;10.20;99.90
11446;DHT22;5779;64.178;15.432;2023-05-10T05:23:36;10.20;99.90
11446;DHT22;5779;64.178;15.432;2023-05-10T05:26:23;10.30;99.90
11446;DHT22;5779;64.178;15.432;2023-05-10T05:29:11;10.20;99.90
11446;DHT22;5779;64.178;15.432;2023-05-10T05:31:58;10.10;99.90
11446;DHT22;5779;64.178;15.432;2023-05-10T05:34:45;10.30;99.90
11446;DHT22;5779;64.178;15.432;2023-05-10T05:37:32;10.30;99.90
11446;DHT22;5779;64.178;15.432;2023-05-10T05:40:18;10.30;99.90
11446;DHT22;5779;64.178;15.432;2023-05-10T05:43:05;10.50;99.90
11446;DHT22;5779;64.178;15.432;2023-05-10T05:45:54;10.60;99.90
11446;DHT22;5779;64.178;15.432;2023-05-10T05:48:42;10.60;99.90
11446;DHT22;5779;64.178;15.432;2023-05-10T05:51:30;10.70;99.90
11446;DHT22;5779;64.178;15.432;2023-05-10T05:54:17;10.70;99.90
11446;DHT22;5779;64.178;15.432;2023-05-10T05:57:04;10.70;99.90
11446;DHT22;5779;64.178;15.432;2023-05-10T05:59:51;10.70;99.90
11446;DHT22;5779;64.178;15.432;2023-05-10T06:02:39;10.80;99.90
11446;DHT22;5779;64.178;15.432;2023-05-10T06:05:26;10.70;99.90
11446;DHT22;5779;64.178;15.432;2023-05-10T06:08:13;10.80;99.90
11446;DHT22;5779;64.178;15.432;2023-05-10T06:10:59;10.90;99.90
11446;DHT22;5779;64.178;15.432;2023-05-10T06:13:46;11.10;99.90
11446;DHT22;5779;64.178;15.432;2023-05-10T06:16:33;11.30;99.90
11446;DHT22;5779;64.178;15.432;2023-05-10T06:19:21;11.40;99.90
11446;DHT22;5779;64.178;15.432;2023-05-10T06:22:08;11.30;99.90
11446;DHT22;5779;64.178;15.432;2023-05-10T06:24:55;11.60;99.90
11446;DHT22;5779;64.178;15.432;2023-05-10T06:27:42;11.60;99.90
11446;DHT22;5779;64.178;15.432;2023-05-10T06:30:29;11.80;99.90
11446;DHT22;5779;64.178;15.432;2023-05-10T06:33:15;11.90;99.90
11446;DHT22;5779;64.178;15.432;2023-05-10T06:36:04;12.00;99.90
11446;DHT22;5779;64.178;15.432;2023-05-10T06:38:51;12.00;99.90
11446;DHT22;5779;64.178;15.432;2023-05-10T06:41:38;11.80;99.90
11446;DHT22;5779;64.178;15.432;2023-05-10T06:44:25;11.50;99.90
11446;DHT22;5779;64.178;15.432;2023-05-10T06:47:12;11.50;99.90
11446;DHT22;5779;64.178;15.432;2023-05-10T06:49:59;11.70;99.90
11446;DHT22;5779;64.178;15.432;2023-05-10T06:52:48;11.80;99.90
11446;DHT22;5779;64.178;15.432;2023-05-10T06:55:35;11.80;99.90
11446;DHT22;5779;64.178;15.432;2023-05-10T06:58:22;11.80;99.90
11446;DHT22;5779;64.178;15.432;2023-05-10T07:01:09;11.80;99.90
11446;DHT22;5779;64.178;15.432;2023-05-10T07:03:55;11.70;99.90
11446;DHT22;5779;64.178;15.432;2023-05-10T07:06:42;12.00;99.90
11446;DHT22;5779;64.178;15.432;2023-05-10T07:09:33;12.50;99.90
11446;DHT22;5779;64.178;15.432;2023-05-10T07:12:19;12.80;99.90
11446;DHT22;5779;64.178;15.432;2023-05-10T07:15:07;12.80;99.90
11446;DHT22;5779;64.178;15.432;2023-05-10T07:17:54;13.00;99.90
11446;DHT22;5779;64.178;15.432;2023-05-10T07:20:41;13.10;99.50
11446;DHT22;5779;64.178;15.432;2023-05-10T07:23:28;12.90;99.20
11446;DHT22;5779;64.178;15.432;2023-05-10T07:26:17;13.10;99.90
11446;DHT22;5779;64.178;15.432;2023-05-10T07:29:04;13.20;99.50
11446;DHT22;5779;64.178;15.432;2023-05-10T07:31:51;12.80;99.00
11446;DHT22;5779;64.178;15.432;2023-05-10T07:34:38;12.80;99.30
11446;DHT22;5779;64.178;15.432;2023-05-10T07:37:25;12.90;99.30
11446;DHT22;5779;64.178;15.432;2023-05-10T07:40:12;13.20;99.60
11446;DHT22;5779;64.178;15.432;2023-05-10T07:43:00;13.30;98.40
11446;DHT22;5779;64.178;15.432;2023-05-10T07:45:47;13.50;97.60
11446;DHT22;5779;64.178;15.432;2023-05-10T07:48:34;13.20;97.50
11446;DHT22;5779;64.178;15.432;2023-05-10T07:51:21;13.50;98.20
11446;DHT22;5779;64.178;15.432;2023-05-10T07:54:08;13.40;97.10
11446;DHT22;5779;64.178;15.432;2023-05-10T07:56:54;13.30;97.50
11446;DHT22;5779;64.178;15.432;2023-05-10T07:59:43;13.40;97.40
11446;DHT22;5779;64.178;15.432;2023-05-10T08:02:30;13.40;97.30
11446;DHT22;5779;64.178;15.432;2023-05-10T08:05:17;13.30;97.50
11446;DHT22;5779;64.178;15.432;2023-05-10T08:08:04;13.40;97.30
11446;DHT22;5779;64.178;15.432;2023-05-10T08:10:51;13.40;96.70
11446;DHT22;5779;64.178;15.432;2023-05-10T08:13:38;13.40;96.80
11446;DHT22;5779;64.178;15.432;2023-05-10T08:16:26;13.40;97.10
11446;DHT22;5779;64.178;15.432;2023-05-10T08:19:14;13.40;97.40
11446;DHT22;5779;64.178;15.432;2023-05-10T08:22:04;13.30;96.40
11446;DHT22;5779;64.178;15.432;2023-05-10T08:24:50;13.30;96.60
11446;DHT22;5779;64.178;15.432;2023-05-10T08:27:37;13.20;96.80
11446;DHT22;5779;64.178;15.432;2023-05-10T08:30:24;13.40;97.80
11446;DHT22;5779;64.178;15.432;2023-05-10T08:33:12;13.30;96.60
11446;DHT22;5779;64.178;15.432;2023-05-10T08:35:59;13.20;96.40
11446;DHT22;5779;64.178;15.432;2023-05-10T08:38:46;13.30;97.30
11446;DHT22;5779;64.178;15.432;2023-05-10T08:41:34;13.40;96.50
11446;DHT22;5779;64.178;15.432;2023-05-10T08:44:22;13.50;96.40
11446;DHT22;5779;64.178;15.432;2023-05-10T08:47:10;13.50;96.00
11446;DHT22;5779;64.178;15.432;2023-05-10T08:50:00;13.50;96.30
11446;DHT22;5779;64.178;15.432;2023-05-10T08:52:51;13.50;96.70
11446;DHT22;5779;64.178;15.432;2023-05-10T08:55:39;13.60;96.60
11446;DHT22;5779;64.178;15.432;2023-05-10T08:58:27;13.80;96.50
11446;DHT22;5779;64.178;15.432;2023-05-10T09:01:17;13.90;96.70
11446;DHT22;5779;64.178;15.432;2023-05-10T09:04:05;13.90;96.70
11446;DHT22;5779;64.178;15.432;2023-05-10T09:06:53;14.10;97.40
11446;DHT22;5779;64.178;15.432;2023-05-10T09:09:40;14.30;96.60
11446;DHT22;5779;64.178;15.432;2023-05-10T09:12:27;14.20;97.10
11446;DHT22;5779;64.178;15.432;2023-05-10T09:15:15;14.50;96.50
11446;DHT22;5779;64.178;15.432;2023-05-10T09:18:04;14.60;95.10
11446;DHT22;5779;64.178;15.432;2023-05-10T09:20:51;14.60;95.30
11446;DHT22;5779;64.178;15.432;2023-05-10T09:23:42;14.80;95.30
11446;DHT22;5779;64.178;15.432;2023-05-10T09:26:30;15.20;96.10
11446;DHT22;5779;64.178;15.432;2023-05-10T09:29:16;15.10;95.00
11446;DHT22;5779;64.178;15.432;2023-05-10T09:32:03;15.30;95.20
11446;DHT22;5779;64.178;15.432;2023-05-10T09:34:50;15.30;94.90
11446;DHT22;5779;64.178;15.432;2023-05-10T09:37:38;15.30;95.80
11446;DHT22;5779;64.178;15.432;2023-05-10T09:40:28;15.30;94.80
11446;DHT22;5779;64.178;15.432;2023-05-10T09:43:16;15.30;95.80
11446;DHT22;5779;64.178;15.432;2023-05-10T09:46:08;15.60;96.40
11446;DHT22;5779;64.178;15.432;2023-05-10T09:48:56;15.70;95.00
11446;DHT22;5779;64.178;15.432;2023-05-10T09:51:44;15.60;94.60
11446;DHT22;5779;64.178;15.432;2023-05-10T09:54:32;15.50;94.90
11446;DHT22;5779;64.178;15.432;2023-05-10T09:57:21;15.60;95.20
11446;DHT22;5779;64.178;15.432;2023-05-10T10:00:09;15.50;95.00
11446;DHT22;5779;64.178;15.432;2023-05-10T10:02:58;15.50;94.70
11446;DHT22;5779;64.178;15.432;2023-05-10T10:05:45;15.30;94.80
11446;DHT22;5779;64.178;15.432;2023-05-10T10:08:32;15.60;94.60
11446;DHT22;5779;64.178;15.432;2023-05-10T10:11:19;15.80;94.90
11446;DHT22;5779;64.178;15.432;2023-05-10T10:14:07;16.20;94.90
11446;DHT22;5779;64.178;15.432;2023-05-10T10:16:54;16.60;95.20
11446;DHT22;5779;64.178;15.432;2023-05-10T10:19:41;16.50;95.20
11446;DHT22;5779;64.178;15.432;2023-05-10T10:22:29;16.50;95.10
11446;DHT22;5779;64.178;15.432;2023-05-10T10:25:17;16.40;95.10
11446;DHT22;5779;64.178;15.432;2023-05-10T10:28:12;16.40;94.10
11446;DHT22;5779;64.178;15.432;2023-05-10T10:31:15;16.50;93.50
11446;DHT22;5779;64.178;15.432;2023-05-10T10:34:06;16.30;92.10
11446;DHT22;5779;64.178;15.432;2023-05-10T10:36:56;16.30;91.60
11446;DHT22;5779;64.178;15.432;2023-05-10T10:39:43;16.60;93.40
11446;DHT22;5779;64.178;15.432;2023-05-10T10:42:45;16.50;92.10
11446;DHT22;5779;64.178;15.432;2023-05-10T10:45:32;16.40;91.50
11446;DHT22;5779;64.178;15.432;2023-05-10T10:48:23;15.80;92.10
11446;DHT22;5779;64.178;15.432;2023-05-10T10:51:10;16.00;93.00
11446;DHT22;5779;64.178;15.432;2023-05-10T10:54:09;16.50;93.50
11446;DHT22;5779;64.178;15.432;2023-05-10T10:57:10;17.10;93.10
11446;DHT22;5779;64.178;15.432;2023-05-10T11:00:23;17.20;91.40
11446;DHT22;5779;64.178;15.432;2023-05-10T11:03:12;16.90;93.10
11446;DHT22;5779;64.178;15.432;2023-05-10T11:06:03;16.90;92.00
11446;DHT22;5779;64.178;15.432;2023-05-10T11:08:51;16.90;93.10
11446;DHT22;5779;64.178;15.432;2023-05-10T11:11:49;17.00;92.50
11446;DHT22;5779;64.178;15.432;2023-05-10T11:14:37;17.20;92.80
11446;DHT22;5779;64.178;15.432;2023-05-10T11:17:24;17.10;91.20
11446;DHT22;5779;64.178;15.432;2023-05-10T11:20:14;17.00;91.70
11446;DHT22;5779;64.178;15.432;2023-05-10T11:23:13;17.10;92.00
11446;DHT22;5779;64.178;15.432;2023-05-10T11:26:01;17.40;91.30
11446;DHT22;5779;64.178;15.432;2023-05-10T11:28:48;17.00;91.80
11446;DHT22;5779;64.178;15.432;2023-05-10T11:31:35;17.20;91.80
11446;DHT22;5779;64.178;15.432;2023-05-10T11:34:29;17.30;91.10
11446;DHT22;5779;64.178;15.432;2023-05-10T11:37:18;17.30;91.00
11446;DHT22;5779;64.178;15.432;2023-05-10T11:40:08;17.30;91.40
11446;DHT22;5779;64.178;15.432;2023-05-10T11:42:56;17.70;90.60
11446;DHT22;5779;64.178;15.432;2023-05-10T11:45:43;17.30;87.90
11446;DHT22;5779;64.178;15.432;2023-05-10T11:48:31;17.20;89.60
11446;DHT22;5779;64.178;15.432;2023-05-10T11:51:20;17.00;90.00
11446;DHT22;5779;64.178;15.432;2023-05-10T11:54:09;17.40;90.90
11446;DHT22;5779;64.178;15.432;2023-05-10T11:56:58;17.40;87.80
11446;DHT22;5779;64.178;15.432;2023-05-10T11:59:44;17.30;90.20
11446;DHT22;5779;64.178;15.432;2023-05-10T12:02:32;17.20;86.80
11446;DHT22;5779;64.178;15.432;2023-05-10T12:05:19;17.50;87.60
11446;DHT22;5779;64.178;15.432;2023-05-10T12:08:13;17.40;87.00
11446;DHT22;5779;64.178;15.432;2023-05-10T12:11:08;17.30;88.70
11446;DHT22;5779;64.178;15.432;2023-05-10T12:13:57;17.40;89.80
11446;DHT22;5779;64.178;15.432;2023-05-10T12:16:44;17.30;85.40
11446;DHT22;5779;64.178;15.432;2023-05-10T12:19:37;17.40;87.00
11446;DHT22;5779;64.178;15.432;2023-05-10T12:22:24;17.60;88.30
11446;DHT22;5779;64.178;15.432;2023-05-10T12:25:11;17.30;90.00
11446;DHT22;5779;64.178;15.432;2023-05-10T12:27:58;17.40;88.00
11446;DHT22;5779;64.178;15.432;2023-05-10T12:30:48;17.80;88.50
11446;DHT22;5779;64.178;15.432;2023-05-10T12:33:38;17.60;83.60
11446;DHT22;5779;64.178;15.432;2023-05-10T12:36:27;17.40;81.20
11446;DHT22;5779;64.178;15.432;2023-05-10T12:39:14;17.40;83.20
11446;DHT22;5779;64.178;15.432;2023-05-10T12:42:01;17.40;81.30
11446;DHT22;5779;64.178;15.432;2023-05-10T12:44:47;17.60;84.40
11446;DHT22;5779;64.178;15.432;2023-05-10T12:47:36;17.80;85.20
11446;DHT22;5779;64.178;15.432;2023-05-10T12:50:22;17.60;81.90
11446;DHT22;5779;64.178;15.432;2023-05-10T12:53:09;17.80;84.90
11446;DHT22;5779;64.178;15.432;2023-05-10T12:55:56;17.80;84.40
11446;DHT22;5779;64.178;15.432;2023-05-10T12:58:43;17.80;83.60
11446;DHT22;5779;64.178;15.432;2023-05-10T13:01:33;17.70;81.30
11446;DHT22;5779;64.178;15.432;2023-05-10T13:04:21;17.80;81.10
11446;DHT22;5779;64.178;15.432;2023-05-10T13:07:08;17.80;81.60
11446;DHT22;5779;64.178;15.432;2023-05-10T13:09:55;18.00;82.10
11446;DHT22;5779;64.178;15.432;2023-05-10T13:12:41;18.10;79.30
11446;DHT22;5779;64.178;15.432;2023-05-10T13:15:28;17.90;80.50
11446;DHT22;5779;64.178;15.432;2023-05-10T13:18:15;18.20;83.70
11446;DHT22;5779;64.178;15.432;2023-05-10T13:21:04;18.30;83.20
11446;DHT22;5779;64.178;15.432;2023-05-10T13:23:51;18.50;83.50
11446;DHT22;5779;64.178;15.432;2023-05-10T13:26:37;18.40;81.50
11446;DHT22;5779;64.178;15.432;2023-05-10T13:29:25;18.30;79.90
11446;DHT22;5779;64.178;15.432;2023-05-10T13:32:11;18.30;82.90
11446;DHT22;5779;64.178;15.432;2023-05-10T13:34:58;18.20;79.50
11446;DHT22;5779;64.178;15.432;2023-05-10T13:37:47;18.10;84.40
11446;DHT22;5779;64.178;15.432;2023-05-10T13:40:34;18.10;82.80
11446;DHT22;5779;64.178;15.432;2023-05-10T13:43:21;18.10;82.70
11446;DHT22;5779;64.178;15.432;2023-05-10T13:46:08;18.10;83.30
11446;DHT22;5779;64.178;15.432;2023-05-10T13:48:54;18.30;80.60
11446;DHT22;5779;64.178;15.432;2023-05-10T13:51:42;18.20;82.20
11446;DHT22;5779;64.178;15.432;2023-05-10T13:54:30;18.50;84.70
11446;DHT22;5779;64.178;15.432;2023-05-10T13:57:17;18.80;84.30
11446;DHT22;5779;64.178;15.432;2023-05-10T14:00:05;18.80;84.10
11446;DHT22;5779;64.178;15.432;2023-05-10T14:02:52;19.00;88.20
11446;DHT22;5779;64.178;15.432;2023-05-10T14:05:39;18.90;85.00
11446;DHT22;5779;64.178;15.432;2023-05-10T14:08:26;18.50;85.20
11446;DHT22;5779;64.178;15.432;2023-05-10T14:11:14;18.00;83.70
11446;DHT22;5779;64.178;15.432;2023-05-10T14:14:01;17.90;83.20
11446;DHT22;5779;64.178;15.432;2023-05-10T14:16:48;17.80;81.90
11446;DHT22;5779;64.178;15.432;2023-05-10T14:19:35;17.90;84.00
11446;DHT22;5779;64.178;15.432;2023-05-10T14:22:22;17.90;83.60
11446;DHT22;5779;64.178;15.432;2023-05-10T14:25:09;17.70;82.00
11446;DHT22;5779;64.178;15.432;2023-05-10T14:27:57;17.50;84.40
11446;DHT22;5779;64.178;15.432;2023-05-10T14:30:44;17.60;83.70
11446;DHT22;5779;64.178;15.432;2023-05-10T14:33:31;17.40;84.40
11446;DHT22;5779;64.178;15.432;2023-05-10T14:36:18;17.50;85.10
11446;DHT22;5779;64.178;15.432;2023-05-10T14:39:04;17.60;83.70
11446;DHT22;5779;64.178;15.432;2023-05-10T14:41:51;17.60;85.00
11446;DHT22;5779;64.178;15.432;2023-05-10T14:44:40;17.50;82.60
11446;DHT22;5779;64.178;15.432;2023-05-10T14:47:27;17.20;81.80
11446;DHT22;5779;64.178;15.432;2023-05-10T14:50:13;17.20;83.50
11446;DHT22;5779;64.178;15.432;2023-05-10T14:53:01;17.30;84.30
11446;DHT22;5779;64.178;15.432;2023-05-10T14:55:48;17.10;84.10
11446;DHT22;5779;64.178;15.432;2023-05-10T14:58:35;16.60;82.80
11446;DHT22;5779;64.178;15.432;2023-05-10T15:01:23;16.30;83.50
11446;DHT22;5779;64.178;15.432;2023-05-10T15:04:10;16.50;85.10
11446;DHT22;5779;64.178;15.432;2023-05-10T15:06:58;16.70;85.60
11446;DHT22;5779;64.178;15.432;2023-05-10T15:09:46;17.00;86.00
11446;DHT22;5779;64.178;15.432;2023-05-10T15:12:32;17.50;85.20
11446;DHT22;5779;64.178;15.432;2023-05-10T15:15:19;18.10;84.80
11446;DHT22;5779;64.178;15.432;2023-05-10T15:18:08;18.10;83.30
11446;DHT22;5779;64.178;15.432;2023-05-10T15:20:55;18.30;84.80
11446;DHT22;5779;64.178;15.432;2023-05-10T15:23:43;18.10;83.30
11446;DHT22;5779;64.178;15.432;2023-05-10T15:26:30;17.90;85.70
11446;DHT22;5779;64.178;15.432;2023-05-10T15:29:16;17.50;83.80
11446;DHT22;5779;64.178;15.432;2023-05-10T15:32:05;17.70;82.90
11446;DHT22;5779;64.178;15.432;2023-05-10T15:34:53;17.70;82.90
11446;DHT22;5779;64.178;15.432;2023-05-10T15:37:40;18.00;84.10
11446;DHT22;5779;64.178;15.432;2023-05-10T15:40:27;17.90;84.80
11446;DHT22;5779;64.178;15.432;2023-05-10T15:43:14;17.90;85.70
11446;DHT22;5779;64.178;15.432;2023-05-10T15:46:01;17.90;84.10
11446;DHT22;5779;64.178;15.432;2023-05-10T15:48:47;18.10;84.60
11446;DHT22;5779;64.178;15.432;2023-05-10T15:51:36;18.10;83.30
11446;DHT22;5779;64.178;15.432;2023-05-10T15:54:24;18.10;82.70
11446;DHT22;5779;64.178;15.432;2023-05-10T15:57:11;18.20;84.00
11446;DHT22;5779;64.178;15.432;2023-05-10T15:59:57;18.40;84.70
11446;DHT22;5779;64.178;15.432;2023-05-10T16:02:44;18.40;84.20
11446;DHT22;5779;64.178;15.432;2023-05-10T16:05:31;18.10;84.20
11446;DHT22;5779;64.178;15.432;2023-05-10T16:08:20;17.60;82.10
11446;DHT22;5779;64.178;15.432;2023-05-10T16:11:07;17.20;81.90
11446;DHT22;5779;64.178;15.432;2023-05-10T16:13:54;17.30;82.10
11446;DHT22;5779;64.178;15.432;2023-05-10T16:16:40;17.30;81.30
11446;DHT22;5779;64.178;15.432;2023-05-10T16:19:27;17.40;81.20
11446;DHT22;5779;64.178;15.432;2023-05-10T16:22:14;17.50;81.10
11446;DHT22;5779;64.178;15.432;2023-05-10T16:25:02;17.80;81.50
11446;DHT22;5779;64.178;15.432;2023-05-10T16:27:49;17.70;79.70
11446;DHT22;5779;64.178;15.432;2023-05-10T16:30:36;17.40;80.90
11446;DHT22;5779;64.178;15.432;2023-05-10T16:33:23;17.10;80.20
11446;DHT22;5779;64.178;15.432;2023-05-10T16:36:10;17.10;81.50
11446;DHT22;5779;64.178;15.432;2023-05-10T16:38:57;16.90;81.30
11446;DHT22;5779;64.178;15.432;2023-05-10T16:41:45;16.70;81.10
11446;DHT22;5779;64.178;15.432;2023-05-10T16:44:32;16.90;82.50
11446;DHT22;5779;64.178;15.432;2023-05-10T16:47:19;17.00;83.20
11446;DHT22;5779;64.178;15.432;2023-05-10T16:50:08;17.10;82.30
11446;DHT22;5779;64.178;15.432;2023-05-10T16:52:55;16.90;82.00
11446;DHT22;5779;64.178;15.432;2023-05-10T16:55:42;16.80;83.20
11446;DHT22;5779;64.178;15.432;2023-05-10T16:58:30;16.80;81.90
11446;DHT22;5779;64.178;15.432;2023-05-10T17:01:17;16.80;82.00
11446;DHT22;5779;64.178;15.432;2023-05-10T17:04:03;16.90;81.70
11446;DHT22;5779;64.178;15.432;2023-05-10T17:06:50;17.10;81.20
11446;DHT22;5779;64.178;15.432;2023-05-10T17:09:37;17.20;81.00
11446;DHT22;5779;64.178;15.432;2023-05-10T17:12:24;17.10;82.30
11446;DHT22;5779;64.178;15.432;2023-05-10T17:15:12;17.00;81.90
11446;DHT22;5779;64.178;15.432;2023-05-10T17:18:00;17.10;82.30
11446;DHT22;5779;64.178;15.432;2023-05-10T17:20:47;17.50;83.00
11446;DHT22;5779;64.178;15.432;2023-05-10T17:23:34;17.90;82.80
11446;DHT22;5779;64.178;15.432;2023-05-10T17:26:20;18.30;83.60
11446;DHT22;5779;64.178;15.432;2023-05-10T17:29:07;18.40;82.20
11446;DHT22;5779;64.178;15.432;2023-05-10T17:31:56;18.10;80.60
11446;DHT22;5779;64.178;15.432;2023-05-10T17:34:43;17.30;82.20
11446;DHT22;5779;64.178;15.432;2023-05-10T17:37:30;16.60;82.60
11446;DHT22;5779;64.178;15.432;2023-05-10T17:40:17;16.20;83.30
11446;DHT22;5779;64.178;15.432;2023-05-10T17:43:04;15.80;84.40
11446;DHT22;5779;64.178;15.432;2023-05-10T17:45:51;15.60;83.50
11446;DHT22;5779;64.178;15.432;2023-05-10T17:48:39;15.40;83.80
11446;DHT22;5779;64.178;15.432;2023-05-10T17:51:26;15.40;82.90